createdAt,value
2019-05-21T00:01:43.671Z,27.02
2019-05-21T00:06:47.973Z,24.18
2019-05-21T00:11:52.281Z,23.12
2019-05-21T00:16:56.588Z,19.52
2019-05-21T00:22:00.885Z,24.85
2019-05-21T00:27:05.198Z,19.65
2019-05-21T00:33:04.280Z,17.25
2019-05-21T00:39:03.937Z,15.23
2019-05-21T00:44:08.382Z,23.20
2019-05-21T00:49:12.701Z,18.60
2019-05-21T00:54:17.069Z,21.15
2019-05-21T00:59:21.382Z,21.75
2019-05-21T01:04:25.681Z,21.37
2019-05-21T01:09:29.995Z,18.50
2019-05-21T01:14:34.300Z,19.27
2019-05-21T01:19:38.615Z,18.48
2019-05-21T01:24:42.993Z,16.50
2019-05-21T01:29:47.301Z,16.40
2019-05-21T01:34:51.606Z,15.40
2019-05-21T01:39:56.092Z,16.02
2019-05-21T01:45:00.407Z,20.27
2019-05-21T01:50:06.257Z,16.52
2019-05-21T01:55:10.792Z,17.87
2019-05-21T02:00:15.346Z,16.75
2019-05-21T02:05:32.022Z,10.85
2019-05-21T02:10:25.672Z,16.17
2019-05-21T02:15:31.521Z,16.48
2019-05-21T02:20:35.834Z,17.40
2019-05-21T02:25:40.875Z,15.28
2019-05-21T02:30:45.184Z,14.25
2019-05-21T02:35:54.192Z,13.45
2019-05-21T02:40:55.755Z,15.25
2019-05-21T02:46:00.060Z,13.58
2019-05-21T02:51:04.360Z,12.20
2019-05-21T02:56:08.687Z,16.87
2019-05-21T03:01:17.673Z,14.75
2019-05-21T03:06:20.645Z,14.15
2019-05-21T03:11:24.939Z,13.85
2019-05-21T03:16:29.244Z,13.55
2019-05-21T03:21:33.550Z,11.75
2019-05-21T03:26:37.848Z,11.03
2019-05-21T03:31:42.146Z,12.68
2019-05-21T03:36:46.456Z,12.78
2019-05-21T03:41:50.771Z,12.90
2019-05-21T03:46:55.639Z,11.22
2019-05-21T03:51:59.945Z,11.63
2019-05-21T03:57:04.413Z,10.25
2019-05-21T04:02:08.716Z,12.05
2019-05-21T04:07:13.024Z,11.88
2019-05-21T04:12:17.408Z,11.70
2019-05-21T04:17:26.300Z,13.15
2019-05-21T04:22:30.611Z,9.85
2019-05-21T04:27:34.905Z,11.65
2019-05-21T04:32:39.211Z,10.35
2019-05-21T04:37:43.528Z,9.00
2019-05-21T04:42:47.884Z,10.40
2019-05-21T04:47:52.190Z,11.50
2019-05-21T04:52:56.523Z,11.48
2019-05-21T04:58:00.808Z,10.85
2019-05-21T05:03:05.118Z,11.20
2019-05-21T05:08:09.419Z,9.73
2019-05-21T05:13:13.890Z,10.43
2019-05-21T05:18:18.278Z,11.90
2019-05-21T05:23:22.581Z,10.48
2019-05-21T05:28:26.888Z,10.40
2019-05-21T05:33:31.191Z,16.82
2019-05-21T05:38:35.490Z,29.25
2019-05-21T05:43:39.796Z,25.77
2019-05-21T05:48:48.392Z,24.07
2019-05-21T05:53:58.372Z,29.20
2019-05-21T05:59:02.687Z,51.98
2019-05-21T06:04:06.995Z,46.48
2019-05-21T06:09:11.363Z,43.25
2019-05-21T06:14:15.674Z,52.78
2019-05-21T06:19:19.992Z,35.10
2019-05-21T06:24:24.296Z,35.90
2019-05-21T06:29:28.595Z,51.58
2019-05-21T06:34:32.906Z,44.25
2019-05-21T06:39:37.257Z,29.52
2019-05-21T06:44:44.724Z,22.85
2019-05-21T06:49:49.124Z,32.42
2019-05-21T06:54:53.435Z,53.73
2019-05-21T06:59:57.806Z,38.73
2019-05-21T07:05:02.240Z,43.33
2019-05-21T07:10:08.545Z,33.92
2019-05-21T07:15:13.263Z,47.43
2019-05-21T07:20:18.570Z,45.55
2019-05-21T07:25:22.884Z,33.85
2019-05-21T07:30:27.323Z,44.40
2019-05-21T07:35:31.631Z,42.13
2019-05-21T07:40:35.966Z,52.55
2019-05-21T07:45:40.555Z,45.98
2019-05-21T07:50:44.875Z,44.50
2019-05-21T07:55:49.171Z,39.42
2019-05-21T08:00:53.482Z,31.60
2019-05-21T08:05:57.785Z,32.30
2019-05-21T08:11:02.109Z,29.85
2019-05-21T08:16:06.425Z,28.42
2019-05-21T08:21:10.729Z,26.57
2019-05-21T08:26:15.033Z,25.77
2019-05-21T08:31:19.347Z,26.75
2019-05-21T08:36:23.660Z,25.27
2019-05-21T08:41:28.034Z,22.27
2019-05-21T08:46:32.382Z,23.80
2019-05-21T08:51:36.732Z,23.12
2019-05-21T08:56:41.076Z,21.50
2019-05-21T09:01:45.551Z,21.95
2019-05-21T09:06:49.847Z,17.32
2019-05-21T09:11:54.196Z,23.42
2019-05-21T09:16:58.505Z,21.85
2019-05-21T09:22:02.810Z,23.62
2019-05-21T09:27:07.128Z,21.30
2019-05-21T09:32:11.501Z,18.27
2019-05-21T09:37:19.906Z,20.27
2019-05-21T09:42:21.839Z,16.87
2019-05-21T09:47:26.149Z,20.70
2019-05-21T09:52:30.471Z,17.85
2019-05-21T09:57:36.649Z,14.70
2019-05-21T10:02:41.023Z,18.80
2019-05-21T10:07:45.333Z,16.40
2019-05-21T10:12:49.620Z,16.30
2019-05-21T10:17:53.923Z,16.40
2019-05-21T10:22:58.289Z,15.43
2019-05-21T10:28:02.599Z,15.20
2019-05-21T10:33:06.912Z,15.28
2019-05-21T10:38:11.203Z,15.95
2019-05-21T10:43:15.577Z,31.00
2019-05-21T10:48:19.898Z,24.00
2019-05-21T10:53:24.227Z,17.55
2019-05-21T10:58:28.548Z,28.62
2019-05-21T11:03:50.349Z,19.30
2019-05-21T11:08:54.830Z,18.85
2019-05-21T11:13:59.139Z,13.28
2019-05-21T11:19:03.500Z,13.20
2019-05-21T11:24:08.103Z,14.80
2019-05-21T11:29:12.443Z,12.37
2019-05-21T11:34:16.705Z,13.40
2019-05-21T11:39:21.004Z,11.63
2019-05-21T11:44:25.354Z,10.38
2019-05-21T11:49:29.652Z,11.18
2019-05-21T11:54:33.943Z,9.18
2019-05-21T11:59:38.255Z,10.82
2019-05-21T12:04:42.558Z,9.30
2019-05-21T12:09:46.865Z,10.23
2019-05-21T12:14:51.156Z,10.45
2019-05-21T12:19:55.461Z,9.60
2019-05-21T12:24:59.763Z,11.90
2019-05-21T12:30:07.036Z,9.35
2019-05-21T12:35:11.946Z,8.53
2019-05-21T12:40:16.963Z,10.53
2019-05-21T12:45:21.262Z,6.15
2019-05-21T12:50:26.199Z,8.60
2019-05-21T12:55:30.503Z,8.03
2019-05-21T13:00:37.671Z,9.65
2019-05-21T13:05:42.126Z,9.83
2019-05-21T13:10:46.462Z,12.63
2019-05-21T13:15:50.763Z,10.05
2019-05-21T13:20:55.140Z,12.93
2019-05-21T13:25:59.626Z,9.85
2019-05-21T13:31:03.932Z,9.80
2019-05-21T13:36:08.265Z,11.10
2019-05-21T13:41:12.721Z,9.88
2019-05-21T13:46:17.030Z,8.00
2019-05-21T13:51:21.383Z,6.25
2019-05-21T13:56:25.748Z,9.03
2019-05-21T14:01:40.174Z,10.88
2019-05-21T14:06:36.090Z,6.62
2019-05-21T14:11:40.757Z,8.08
2019-05-21T14:16:45.079Z,11.12
2019-05-21T14:21:49.383Z,11.80
2019-05-21T14:26:53.664Z,9.43
2019-05-21T14:31:57.980Z,10.53
2019-05-21T14:37:02.304Z,11.53
2019-05-21T14:42:06.597Z,9.78
2019-05-21T14:47:10.905Z,10.82
2019-05-21T14:52:15.201Z,12.85
2019-05-21T14:57:19.527Z,8.60
2019-05-21T15:02:23.814Z,7.95
2019-05-21T15:07:28.107Z,8.40
2019-05-21T15:12:32.421Z,10.65
2019-05-21T15:17:36.831Z,11.40
2019-05-21T15:22:41.157Z,9.70
2019-05-21T15:27:45.466Z,10.53
2019-05-21T15:32:50.540Z,10.63
2019-05-21T15:37:54.836Z,20.97
2019-05-21T15:42:59.181Z,17.95
2019-05-21T15:48:03.464Z,22.80
2019-05-21T15:53:07.769Z,28.90
2019-05-21T15:58:12.081Z,15.88
2019-05-21T16:03:16.383Z,23.55
2019-05-21T16:08:20.713Z,16.62
2019-05-21T16:13:25.043Z,12.95
2019-05-21T16:18:29.360Z,20.75
2019-05-21T16:23:33.661Z,17.45
2019-05-21T16:28:37.989Z,29.85
2019-05-21T16:33:42.461Z,30.00
2019-05-21T16:38:46.780Z,39.73
2019-05-21T16:43:51.113Z,429.85
2019-05-21T16:48:55.433Z,341.25
2019-05-21T16:53:59.739Z,601.33
2019-05-21T16:59:04.127Z,453.98
2019-05-21T17:04:08.448Z,440.70
2019-05-21T17:09:13.795Z,388.23
2019-05-21T17:14:18.122Z,333.90
2019-05-21T17:19:22.425Z,299.48
2019-05-21T17:24:26.733Z,224.18
2019-05-21T17:29:31.079Z,194.60
2019-05-21T17:34:35.465Z,151.00
2019-05-21T17:39:39.772Z,117.13
2019-05-21T17:44:44.160Z,100.87
2019-05-21T17:49:53.499Z,98.75
2019-05-21T17:54:57.791Z,93.65
2019-05-21T18:00:02.196Z,73.87
2019-05-21T18:05:10.260Z,58.42
2019-05-21T18:10:17.132Z,38.73
2019-05-21T18:15:21.794Z,33.50
2019-05-21T18:20:26.424Z,37.98
2019-05-21T18:25:30.754Z,31.82
2019-05-21T18:30:35.243Z,27.93
2019-05-21T18:35:39.539Z,29.77
2019-05-21T18:40:43.845Z,24.35
2019-05-21T18:45:48.159Z,23.85
2019-05-21T18:50:53.294Z,18.70
2019-05-21T18:55:57.604Z,18.20
2019-05-21T19:01:01.912Z,22.42
2019-05-21T19:06:06.278Z,23.02
2019-05-21T19:11:10.592Z,18.50
2019-05-21T19:16:15.034Z,18.62
2019-05-21T19:21:19.356Z,15.63
2019-05-21T19:26:23.827Z,18.32
2019-05-21T19:31:28.128Z,16.45
2019-05-21T19:36:32.434Z,18.50
2019-05-21T19:41:36.747Z,18.77
2019-05-21T19:46:41.050Z,15.63
2019-05-21T19:51:45.358Z,17.62
2019-05-21T19:56:49.830Z,12.53
2019-05-21T20:01:55.974Z,10.60
2019-05-21T20:07:00.408Z,12.60
2019-05-21T20:12:06.620Z,9.63
2019-05-21T20:17:12.123Z,10.70
2019-05-21T20:22:17.762Z,8.23
2019-05-21T20:27:22.249Z,6.85
2019-05-21T20:32:27.218Z,7.30
2019-05-21T20:37:31.604Z,8.20
2019-05-21T20:42:35.912Z,15.08
2019-05-21T20:47:40.550Z,27.07
2019-05-21T20:52:45.565Z,20.48
2019-05-21T20:57:50.069Z,12.55
2019-05-21T21:02:54.378Z,23.02
2019-05-21T21:07:59.246Z,13.78
2019-05-21T21:13:05.057Z,13.08
2019-05-21T21:18:09.713Z,13.05
2019-05-21T21:23:15.656Z,12.45
2019-05-21T21:28:20.404Z,12.43
2019-05-21T21:33:24.716Z,12.28
2019-05-21T21:38:31.267Z,9.75
2019-05-21T21:43:35.935Z,12.47
2019-05-21T21:48:40.249Z,11.53
2019-05-21T21:53:44.720Z,10.18
2019-05-21T21:58:49.016Z,8.28
2019-05-21T22:03:53.645Z,11.70
2019-05-21T22:08:58.217Z,10.68
2019-05-21T22:14:04.022Z,14.23
2019-05-21T22:19:09.371Z,13.15
2019-05-21T22:24:14.711Z,11.57
2019-05-21T22:29:19.299Z,9.75
2019-05-21T22:34:23.774Z,10.70
2019-05-21T22:39:29.858Z,14.60
2019-05-21T22:44:34.675Z,10.48
2019-05-21T22:49:39.021Z,13.60
2019-05-21T22:54:43.375Z,12.55
2019-05-21T22:59:48.152Z,16.12
2019-05-21T23:04:53.099Z,14.40
2019-05-21T23:09:58.551Z,13.88
2019-05-21T23:15:03.315Z,14.05
2019-05-21T23:20:10.797Z,14.43
2019-05-21T23:25:17.014Z,13.70
2019-05-21T23:30:21.663Z,13.20
2019-05-21T23:35:27.077Z,11.78
2019-05-21T23:40:32.316Z,11.05
2019-05-21T23:45:36.761Z,13.50
2019-05-21T23:50:41.070Z,11.88
2019-05-21T23:55:46.280Z,11.33
